createdAt,value
2022-10-11T00:00:11.644Z,70.08
2022-10-11T00:01:11.809Z,70.00
2022-10-11T00:02:11.645Z,69.97
2022-10-11T00:03:11.589Z,70.00
2022-10-11T00:04:11.586Z,69.98
2022-10-11T00:05:11.553Z,69.95
2022-10-11T00:06:11.554Z,69.90
2022-10-11T00:07:11.765Z,69.88
2022-10-11T00:08:11.533Z,69.85
2022-10-11T00:09:11.529Z,69.87
2022-10-11T00:10:11.515Z,69.87
2022-10-11T00:11:11.512Z,69.86
2022-10-11T00:12:11.493Z,69.91
2022-10-11T00:13:11.623Z,69.88
2022-10-11T00:14:11.481Z,69.84
2022-10-11T00:15:11.458Z,69.82
2022-10-11T00:16:11.456Z,69.77
2022-10-11T00:17:11.423Z,69.78
2022-10-11T00:18:11.414Z,69.84
2022-10-11T00:19:11.792Z,69.80
2022-10-11T00:20:11.392Z,69.73
2022-10-11T00:21:11.389Z,69.73
2022-10-11T00:22:11.376Z,69.72
2022-10-11T00:23:11.363Z,69.69
2022-10-11T00:24:11.369Z,69.69
2022-10-11T00:25:11.539Z,69.66
2022-10-11T00:26:11.325Z,69.58
2022-10-11T00:27:11.318Z,69.54
2022-10-11T00:28:11.354Z,69.58
2022-10-11T00:29:11.306Z,69.63
2022-10-11T00:30:11.284Z,69.66
2022-10-11T00:31:11.635Z,69.73
2022-10-11T00:32:11.265Z,69.80
2022-10-11T00:33:11.263Z,69.87
2022-10-11T00:34:11.241Z,69.86
2022-10-11T00:35:11.225Z,69.86
2022-10-11T00:36:11.217Z,69.88
2022-10-11T00:37:11.374Z,69.93
2022-10-11T00:38:11.194Z,69.89
2022-10-11T00:39:12.949Z,69.89
2022-10-11T00:40:11.177Z,69.83
2022-10-11T00:41:11.167Z,69.72
2022-10-11T00:42:11.165Z,69.65
2022-10-11T00:43:11.464Z,69.61
2022-10-11T00:44:11.152Z,69.56
2022-10-11T00:45:11.120Z,69.45
2022-10-11T00:46:11.116Z,69.33
2022-10-11T00:47:11.093Z,69.31
2022-10-11T00:48:11.098Z,69.28
2022-10-11T00:49:11.226Z,69.27
2022-10-11T00:50:11.088Z,69.28
2022-10-11T00:51:11.087Z,69.28
2022-10-11T00:52:11.083Z,69.29
2022-10-11T00:53:11.039Z,69.29
2022-10-11T00:54:11.046Z,69.26
2022-10-11T00:55:11.236Z,69.24
2022-10-11T00:56:11.032Z,69.20
2022-10-11T00:57:10.995Z,69.15
2022-10-11T00:58:10.985Z,69.11
2022-10-11T00:59:10.980Z,69.09
2022-10-11T01:00:10.968Z,69.11
2022-10-11T01:01:11.329Z,69.11
2022-10-11T01:02:10.937Z,69.07
2022-10-11T01:03:10.929Z,69.05
2022-10-11T01:04:10.934Z,68.98
2022-10-11T01:05:28.599Z,68.96
2022-10-11T01:06:12.291Z,68.97
2022-10-11T01:07:10.896Z,69.02
2022-10-11T01:08:10.865Z,69.05
2022-10-11T01:09:10.859Z,69.08
2022-10-11T01:10:10.868Z,69.10
2022-10-11T01:11:10.843Z,69.15
2022-10-11T01:12:11.204Z,69.17
2022-10-11T01:13:10.806Z,69.18
2022-10-11T01:14:10.802Z,69.16
2022-10-11T01:15:10.815Z,69.12
2022-10-11T01:16:10.776Z,69.12
2022-10-11T01:17:10.778Z,69.12
2022-10-11T01:18:10.980Z,69.11
2022-10-11T01:19:10.746Z,69.11
2022-10-11T01:20:10.750Z,69.15
2022-10-11T01:21:10.740Z,69.10
2022-10-11T01:22:10.717Z,69.09
2022-10-11T01:23:10.707Z,69.07
2022-10-11T01:24:11.167Z,69.07
2022-10-11T01:25:10.677Z,69.09
2022-10-11T01:26:10.670Z,69.08
2022-10-11T01:27:10.677Z,69.08
2022-10-11T01:28:10.653Z,69.07
2022-10-11T01:29:10.647Z,69.07
2022-10-11T01:30:10.848Z,69.09
2022-10-11T01:31:10.616Z,69.08
2022-10-11T01:32:10.610Z,69.12
2022-10-11T01:33:10.587Z,69.18
2022-10-11T01:34:10.579Z,69.22
2022-10-11T01:35:10.576Z,69.22
2022-10-11T01:36:10.886Z,69.27
2022-10-11T01:37:10.551Z,69.32
2022-10-11T01:38:10.545Z,69.33
2022-10-11T01:39:10.521Z,69.34
2022-10-11T01:40:10.519Z,69.37
2022-10-11T01:41:10.503Z,69.39
2022-10-11T01:42:10.701Z,69.43
2022-10-11T01:43:10.485Z,69.54
2022-10-11T01:44:10.477Z,69.48
2022-10-11T01:45:10.448Z,69.50
2022-10-11T01:46:10.457Z,69.60
2022-10-11T01:47:10.454Z,69.60
2022-10-11T01:48:10.656Z,69.67
2022-10-11T01:49:10.429Z,69.67
2022-10-11T01:50:10.397Z,69.73
2022-10-11T01:51:10.398Z,69.73
2022-10-11T01:52:10.397Z,69.75
2022-10-11T01:53:10.381Z,69.81
2022-10-11T01:54:10.581Z,69.89
2022-10-11T01:55:10.694Z,69.93
2022-10-11T01:56:10.340Z,69.96
2022-10-11T01:57:10.339Z,70.06
2022-10-11T01:58:10.333Z,70.09
2022-10-11T01:59:10.312Z,70.07
2022-10-11T02:00:10.478Z,70.15
2022-10-11T02:01:10.320Z,70.14
2022-10-11T02:02:10.281Z,70.08
2022-10-11T02:03:10.270Z,70.09
2022-10-11T02:04:10.459Z,70.03
2022-10-11T02:05:10.250Z,70.06
2022-10-11T02:06:10.252Z,70.04
2022-10-11T02:07:10.230Z,70.07
2022-10-11T02:08:10.209Z,70.25
2022-10-11T02:09:10.198Z,70.18
2022-10-11T02:10:10.418Z,70.22
2022-10-11T02:11:10.179Z,70.27
2022-10-11T02:12:10.192Z,70.25
2022-10-11T02:13:10.156Z,70.27
2022-10-11T02:14:10.147Z,70.30
2022-10-11T02:15:10.131Z,70.26
2022-10-11T02:16:10.318Z,70.18
2022-10-11T02:17:10.118Z,70.24
2022-10-11T02:18:10.127Z,70.19
2022-10-11T02:19:10.097Z,70.23
2022-10-11T02:20:10.097Z,70.24
2022-10-11T02:21:10.061Z,70.24
2022-10-11T02:22:10.223Z,70.23
2022-10-11T02:23:10.067Z,70.23
2022-10-11T02:24:10.052Z,70.23
2022-10-11T02:25:10.034Z,70.17
2022-10-11T02:26:10.019Z,70.18
2022-10-11T02:27:09.999Z,70.22
2022-10-11T02:28:10.301Z,70.28
2022-10-11T02:29:09.987Z,70.33
2022-10-11T02:30:09.972Z,70.37
2022-10-11T02:31:09.960Z,70.43
2022-10-11T02:32:09.951Z,70.46
2022-10-11T02:33:09.929Z,70.53
2022-10-11T02:34:10.381Z,70.55
2022-10-11T02:35:09.909Z,70.66
2022-10-11T02:36:09.910Z,70.75
2022-10-11T02:37:09.896Z,70.80
2022-10-11T02:38:09.878Z,70.86
2022-10-11T02:39:09.873Z,70.86
2022-10-11T02:40:10.189Z,70.93
2022-10-11T02:41:09.838Z,70.99
2022-10-11T02:42:17.359Z,70.97
2022-10-11T02:43:09.822Z,71.01
2022-10-11T02:44:09.812Z,71.05
2022-10-11T02:45:09.819Z,71.07
2022-10-11T02:46:10.010Z,71.17
2022-10-11T02:47:09.781Z,71.23
2022-10-11T02:48:09.779Z,71.26
2022-10-11T02:49:09.757Z,71.27
2022-10-11T02:50:09.751Z,71.32
2022-10-11T02:51:09.730Z,71.34
2022-10-11T02:52:10.051Z,71.32
2022-10-11T02:53:09.717Z,71.32
2022-10-11T02:54:09.702Z,71.31
2022-10-11T02:55:09.703Z,71.34
2022-10-11T02:56:09.683Z,71.45
2022-10-11T02:57:09.682Z,71.50
2022-10-11T02:58:10.003Z,71.53
2022-10-11T02:59:09.652Z,71.53
2022-10-11T03:00:09.632Z,71.57
2022-10-11T03:01:09.676Z,71.65
2022-10-11T03:02:09.623Z,71.75
2022-10-11T03:03:09.613Z,71.80
2022-10-11T03:04:09.928Z,71.85
2022-10-11T03:05:09.622Z,71.97
2022-10-11T03:06:09.579Z,72.05
2022-10-11T03:07:09.563Z,72.14
2022-10-11T03:08:09.553Z,72.19
2022-10-11T03:09:09.547Z,72.24
2022-10-11T03:10:09.916Z,72.30
2022-10-11T03:11:09.535Z,72.40
2022-10-11T03:12:09.501Z,72.47
2022-10-11T03:13:09.494Z,72.53
2022-10-11T03:14:09.489Z,72.59
2022-10-11T03:15:09.469Z,72.67
2022-10-11T03:16:10.226Z,72.72
2022-10-11T03:17:34.375Z,72.78
2022-10-11T03:18:10.451Z,72.88
2022-10-11T03:19:09.436Z,72.98
2022-10-11T03:20:09.429Z,73.05
2022-10-11T03:21:09.415Z,73.12
2022-10-11T03:22:09.552Z,73.17
2022-10-11T03:23:09.402Z,73.18
2022-10-11T03:24:09.372Z,73.22
2022-10-11T03:25:09.362Z,73.20
2022-10-11T03:26:09.608Z,73.17
2022-10-11T03:27:09.349Z,73.19
2022-10-11T03:28:09.564Z,73.24
2022-10-11T03:29:09.336Z,73.30
2022-10-11T03:30:09.323Z,73.39
2022-10-11T03:31:09.327Z,73.46
2022-10-11T03:32:09.287Z,73.54
2022-10-11T03:33:09.288Z,73.61
2022-10-11T03:34:09.477Z,73.65
2022-10-11T03:35:09.264Z,73.68
2022-10-11T03:36:09.518Z,73.73
2022-10-11T03:37:09.244Z,73.79
2022-10-11T03:38:12.902Z,73.82
2022-10-11T03:39:09.221Z,73.89
2022-10-11T03:40:09.389Z,73.93
2022-10-11T03:41:09.196Z,74.00
2022-10-11T03:42:09.182Z,74.03
2022-10-11T03:43:09.172Z,74.09
2022-10-11T03:44:09.166Z,74.17
2022-10-11T03:45:09.144Z,74.26
2022-10-11T03:46:09.548Z,74.35
2022-10-11T03:47:09.128Z,74.42
2022-10-11T03:48:09.119Z,74.45
2022-10-11T03:49:09.104Z,74.44
2022-10-11T03:50:09.083Z,74.39
2022-10-11T03:51:09.090Z,74.39
2022-10-11T03:52:09.233Z,74.34
2022-10-11T03:53:09.069Z,74.40
2022-10-11T03:54:09.063Z,74.41
2022-10-11T03:55:09.093Z,74.55
2022-10-11T03:56:09.042Z,74.56
2022-10-11T03:57:09.026Z,74.65
2022-10-11T03:58:09.154Z,74.66
2022-10-11T03:59:08.998Z,74.73
2022-10-11T04:00:08.984Z,74.79
2022-10-11T04:01:09.005Z,74.84
2022-10-11T04:02:09.069Z,74.82
2022-10-11T04:03:08.974Z,74.80
2022-10-11T04:04:09.303Z,74.90
2022-10-11T04:05:08.949Z,75.00
2022-10-11T04:06:09.678Z,75.03
2022-10-11T04:07:08.906Z,75.09
2022-10-11T04:08:12.112Z,75.10
2022-10-11T04:09:08.889Z,74.96
2022-10-11T04:10:09.055Z,75.04
2022-10-11T04:11:08.880Z,74.99
2022-10-11T04:12:08.864Z,74.96
2022-10-11T04:13:08.846Z,74.96
2022-10-11T04:14:08.843Z,74.86
2022-10-11T04:15:08.827Z,74.83
2022-10-11T04:16:09.178Z,74.72
2022-10-11T04:17:08.807Z,74.66
2022-10-11T04:18:08.800Z,74.56
2022-10-11T04:19:08.805Z,74.48
2022-10-11T04:20:08.785Z,74.41
2022-10-11T04:21:08.765Z,74.46
2022-10-11T04:22:09.485Z,74.51
2022-10-11T04:23:08.736Z,74.53
2022-10-11T04:24:08.738Z,74.51
2022-10-11T04:25:08.729Z,74.49
2022-10-11T04:26:09.010Z,74.45
2022-10-11T04:27:08.699Z,74.48
2022-10-11T04:28:08.878Z,74.52
2022-10-11T04:29:08.683Z,74.51
2022-10-11T04:30:08.711Z,74.52
2022-10-11T04:31:08.656Z,74.57
2022-10-11T04:32:08.654Z,74.53
2022-10-11T04:33:08.639Z,74.50
2022-10-11T04:34:08.844Z,74.47
2022-10-11T04:35:08.611Z,74.49
2022-10-11T04:36:08.922Z,74.51
2022-10-11T04:37:08.582Z,74.48
2022-10-11T04:38:08.575Z,74.48
2022-10-11T04:39:08.576Z,74.48
2022-10-11T04:40:08.828Z,74.45
2022-10-11T04:41:08.534Z,74.47
2022-10-11T04:42:08.540Z,74.56
2022-10-11T04:43:08.516Z,74.59
2022-10-11T04:44:08.498Z,74.64
2022-10-11T04:45:08.499Z,74.69
2022-10-11T04:46:09.157Z,74.78
2022-10-11T04:47:08.622Z,74.83
2022-10-11T04:48:08.453Z,74.88
2022-10-11T04:49:08.451Z,74.93
2022-10-11T04:50:08.455Z,74.99
2022-10-11T04:51:08.424Z,75.01
2022-10-11T04:52:08.578Z,74.98
2022-10-11T04:53:08.404Z,75.01
2022-10-11T04:54:08.567Z,75.00
2022-10-11T04:55:08.388Z,74.96
2022-10-11T04:56:08.969Z,74.93
2022-10-11T04:57:08.377Z,74.96
2022-10-11T04:58:08.349Z,74.97
2022-10-11T04:59:08.346Z,75.02
2022-10-11T05:00:08.525Z,75.10
2022-10-11T05:01:08.319Z,75.22
2022-10-11T05:02:08.314Z,75.32
2022-10-11T05:03:08.306Z,75.38
2022-10-11T05:04:08.285Z,75.44
2022-10-11T05:05:08.273Z,75.48
2022-10-11T05:06:08.850Z,75.52
2022-10-11T05:07:08.261Z,75.55
2022-10-11T05:08:08.245Z,75.58
2022-10-11T05:09:08.236Z,75.55
2022-10-11T05:10:08.226Z,75.46
2022-10-11T05:11:08.208Z,75.49
2022-10-11T05:12:09.083Z,75.60
2022-10-11T05:13:08.184Z,75.68
2022-10-11T05:14:08.175Z,75.65
2022-10-11T05:15:08.181Z,75.55
2022-10-11T05:16:10.875Z,75.55
2022-10-11T05:17:08.146Z,75.56
2022-10-11T05:18:08.517Z,75.47
2022-10-11T05:19:08.173Z,75.56
2022-10-11T05:20:08.127Z,75.72
2022-10-11T05:21:08.167Z,75.96
2022-10-11T05:22:08.107Z,75.87
2022-10-11T05:23:08.084Z,75.79
2022-10-11T05:24:19.300Z,75.69
2022-10-11T05:25:16.630Z,75.63
2022-10-11T05:26:15.608Z,75.65
2022-10-11T05:27:16.558Z,75.64
2022-10-11T05:28:17.398Z,75.57
2022-10-11T05:29:35.059Z,75.56
2022-10-11T05:30:16.547Z,75.53
2022-10-11T05:31:15.503Z,75.39
2022-10-11T05:32:16.492Z,75.36
2022-10-11T05:33:15.491Z,75.33
2022-10-11T05:34:07.957Z,75.36
2022-10-11T05:35:08.177Z,75.22
2022-10-11T05:36:08.400Z,75.11
2022-10-11T05:37:07.927Z,75.12
2022-10-11T05:38:07.925Z,75.16
2022-10-11T05:39:07.891Z,75.21
2022-10-11T05:40:07.900Z,75.14
2022-10-11T05:41:08.082Z,75.07
2022-10-11T05:42:10.051Z,75.04
2022-10-11T05:43:07.868Z,75.06
2022-10-11T05:44:07.850Z,75.05
2022-10-11T05:45:07.830Z,74.94
2022-10-11T05:46:08.349Z,74.92
2022-10-11T05:47:07.970Z,74.97
2022-10-11T05:48:07.802Z,74.94
2022-10-11T05:49:07.791Z,74.83
2022-10-11T05:50:07.793Z,74.90
2022-10-11T05:51:07.776Z,74.95
2022-10-11T05:52:07.761Z,75.03
2022-10-11T05:53:08.280Z,75.08
2022-10-11T05:54:07.746Z,75.05
2022-10-11T05:55:07.721Z,75.09
2022-10-11T05:56:08.131Z,75.06
2022-10-11T05:57:07.723Z,75.02
2022-10-11T05:58:07.696Z,74.95
2022-10-11T05:59:07.896Z,75.01
2022-10-11T06:00:07.675Z,74.99
2022-10-11T06:01:07.707Z,74.95
2022-10-11T06:02:07.649Z,75.00
2022-10-11T06:03:07.638Z,75.10
2022-10-11T06:04:07.801Z,75.18
2022-10-11T06:05:07.619Z,75.28
2022-10-11T06:06:07.928Z,75.38
2022-10-11T06:07:07.597Z,75.47
2022-10-11T06:08:07.593Z,75.55
2022-10-11T06:09:07.581Z,75.54
2022-10-11T06:10:07.780Z,75.49
2022-10-11T06:11:11.371Z,75.46
2022-10-11T06:12:07.530Z,75.56
2022-10-11T06:13:07.529Z,75.61
2022-10-11T06:14:07.518Z,75.64
2022-10-11T06:15:07.546Z,75.63
2022-10-11T06:16:08.073Z,75.58
2022-10-11T06:17:07.494Z,75.51
2022-10-11T06:18:07.495Z,75.40
2022-10-11T06:19:07.467Z,75.33
2022-10-11T06:20:07.454Z,75.31
2022-10-11T06:21:07.450Z,75.30
2022-10-11T06:22:07.642Z,75.26
2022-10-11T06:23:07.415Z,75.15
2022-10-11T06:24:07.404Z,75.01
2022-10-11T06:25:07.435Z,75.01
2022-10-11T06:26:07.982Z,74.98
2022-10-11T06:27:07.372Z,74.98
2022-10-11T06:28:07.745Z,74.92
2022-10-11T06:29:07.376Z,74.88
2022-10-11T06:30:07.398Z,74.84
2022-10-11T06:31:07.330Z,74.83
2022-10-11T06:32:07.320Z,74.76
2022-10-11T06:33:07.329Z,74.75
2022-10-11T06:34:07.451Z,74.73
2022-10-11T06:35:07.286Z,74.70
2022-10-11T06:36:07.767Z,74.71
2022-10-11T06:37:07.269Z,74.60
2022-10-11T06:38:07.255Z,74.54
2022-10-11T06:39:16.948Z,74.50
2022-10-11T06:40:14.773Z,74.47
2022-10-11T06:41:14.726Z,74.37
2022-10-11T06:42:15.927Z,74.23
2022-10-11T06:43:14.874Z,74.12
2022-10-11T06:44:11.934Z,73.98
2022-10-11T06:48:41.278Z,73.10
2022-10-11T06:49:48.606Z,73.17
2022-10-11T06:50:59.234Z,73.04
2022-10-11T06:51:42.053Z,73.00
2022-10-11T06:52:41.053Z,73.00
2022-10-11T06:53:41.038Z,72.91
2022-10-11T06:54:44.715Z,72.82
2022-10-11T06:55:41.014Z,72.78
2022-10-11T06:56:41.038Z,72.79
2022-10-11T06:57:41.004Z,72.69
2022-10-11T06:58:40.981Z,72.64
2022-10-11T06:59:40.984Z,72.56
2022-10-11T07:00:41.221Z,72.34
2022-10-11T07:01:41.029Z,72.26
2022-10-11T07:02:40.938Z,72.25
2022-10-11T07:03:40.913Z,72.22
2022-10-11T07:04:40.912Z,72.20
2022-10-11T07:05:40.903Z,72.20
2022-10-11T07:06:41.053Z,72.12
2022-10-11T07:07:40.887Z,72.11
2022-10-11T07:08:40.862Z,72.07
2022-10-11T07:09:40.932Z,71.84
2022-10-11T07:10:40.844Z,71.80
2022-10-11T07:11:40.833Z,71.75
2022-10-11T07:12:41.083Z,71.60
2022-10-11T07:13:40.810Z,71.56
2022-10-11T07:14:40.845Z,71.57
2022-10-11T07:15:40.815Z,71.57
2022-10-11T07:16:40.788Z,71.59
2022-10-11T07:17:40.932Z,71.60
2022-10-11T07:18:40.921Z,71.55
2022-10-11T07:19:40.742Z,71.51
2022-10-11T07:20:40.734Z,71.36
2022-10-11T07:21:40.721Z,71.35
2022-10-11T07:22:40.730Z,71.21
2022-10-11T07:23:40.703Z,70.97
2022-10-11T07:24:40.863Z,71.00
2022-10-11T07:25:40.715Z,71.02
2022-10-11T07:26:40.688Z,70.83
2022-10-11T07:27:40.675Z,70.74
2022-10-11T07:28:40.725Z,70.48
2022-10-11T07:29:40.633Z,70.43
2022-10-11T07:30:40.649Z,70.37
2022-10-11T07:31:40.609Z,70.47
2022-10-11T07:32:40.604Z,70.41
2022-10-11T07:33:40.596Z,70.50
2022-10-11T07:34:40.582Z,70.45
2022-10-11T07:35:42.865Z,70.05
2022-10-11T07:36:41.734Z,69.75
2022-10-11T07:37:40.564Z,69.76
2022-10-11T07:38:40.568Z,69.56
2022-10-11T07:39:40.542Z,69.40
2022-10-11T07:40:40.522Z,69.54
2022-10-11T07:41:45.437Z,69.54
2022-10-11T07:42:41.532Z,69.17
2022-10-11T07:43:40.499Z,69.16
2022-10-11T07:44:40.474Z,69.36
2022-10-11T07:45:40.454Z,69.50
2022-10-11T07:46:40.508Z,68.63
2022-10-11T07:47:40.449Z,68.52
2022-10-11T07:48:40.453Z,68.30
2022-10-11T07:49:40.414Z,68.05
2022-10-11T07:50:40.408Z,68.01
2022-10-11T07:51:40.398Z,67.99
2022-10-11T07:52:40.376Z,68.07
2022-10-11T07:53:40.425Z,68.14
2022-10-11T07:54:40.468Z,67.86
2022-10-11T07:55:40.354Z,67.83
2022-10-11T07:56:40.352Z,68.25
2022-10-11T07:57:40.330Z,68.27
2022-10-11T07:58:40.347Z,67.92
2022-10-11T07:59:40.301Z,67.91
2022-10-11T08:00:40.471Z,67.85
2022-10-11T08:01:40.327Z,67.42
2022-10-11T08:02:40.388Z,67.23
2022-10-11T08:03:40.253Z,67.22
2022-10-11T08:04:40.263Z,67.01
2022-10-11T08:05:40.234Z,67.06
2022-10-11T08:06:40.396Z,67.00
2022-10-11T08:07:40.245Z,67.10
2022-10-11T08:08:40.213Z,67.33
2022-10-11T08:09:40.192Z,67.31
2022-10-11T08:10:40.194Z,67.29
2022-10-11T08:11:40.178Z,66.81
2022-10-11T08:12:40.512Z,66.52
2022-10-11T08:13:40.145Z,66.44
2022-10-11T08:14:40.156Z,66.21
2022-10-11T08:15:40.142Z,66.40
2022-10-11T08:16:40.122Z,66.33
2022-10-11T08:17:40.125Z,66.55
2022-10-11T08:18:40.337Z,66.76
2022-10-11T08:19:40.088Z,66.65
2022-10-11T08:20:40.093Z,66.45
2022-10-11T08:21:40.137Z,66.33
2022-10-11T08:22:40.086Z,65.76
2022-10-11T08:23:40.070Z,65.49
2022-10-11T08:24:40.228Z,65.73
2022-10-11T08:25:40.025Z,65.81
2022-10-11T08:26:40.014Z,65.33
2022-10-11T08:27:39.996Z,65.41
2022-10-11T08:28:40.034Z,65.45
2022-10-11T08:29:39.974Z,65.64
2022-10-11T08:30:40.160Z,65.63
2022-10-11T08:31:39.953Z,65.61
2022-10-11T08:32:39.955Z,65.53
2022-10-11T08:33:39.936Z,65.51
2022-10-11T08:34:39.949Z,65.52
2022-10-11T08:35:39.912Z,65.71
2022-10-11T08:36:40.080Z,65.91
2022-10-11T08:37:39.911Z,66.13
2022-10-11T08:38:39.890Z,65.59
2022-10-11T08:39:39.879Z,64.89
2022-10-11T08:40:39.865Z,64.84
2022-10-11T08:41:39.855Z,64.78
2022-10-11T08:42:40.078Z,64.82
2022-10-11T08:43:39.822Z,65.11
2022-10-11T08:45:09.373Z,64.97
2022-10-11T08:45:40.826Z,64.86
2022-10-11T08:46:39.837Z,64.52
2022-10-11T08:47:39.791Z,64.32
2022-10-11T08:48:39.980Z,64.29
2022-10-11T08:49:39.764Z,63.86
2022-10-11T08:50:39.772Z,63.99
2022-10-11T08:51:39.736Z,64.07
2022-10-11T08:52:39.729Z,63.68
2022-10-11T08:53:39.726Z,63.65
2022-10-11T08:54:39.942Z,63.12
2022-10-11T08:55:39.710Z,63.61
2022-10-11T08:56:39.688Z,63.79
2022-10-11T08:57:39.671Z,63.86
2022-10-11T08:58:39.716Z,63.82
2022-10-11T08:59:39.678Z,63.41
2022-10-11T09:00:40.069Z,62.88
2022-10-11T09:01:39.669Z,62.86
2022-10-11T09:03:03.381Z,62.84
2022-10-11T09:03:40.613Z,62.14
2022-10-11T09:04:39.601Z,62.29
2022-10-11T09:05:39.584Z,62.47
2022-10-11T09:06:39.743Z,62.68
2022-10-11T09:07:39.565Z,62.21
2022-10-11T09:08:39.560Z,62.49
2022-10-11T09:09:39.549Z,61.96
2022-10-11T09:10:39.538Z,61.72
2022-10-11T09:11:39.518Z,61.81
2022-10-11T09:12:40.950Z,62.28
2022-10-11T09:13:39.499Z,62.27
2022-10-11T09:14:39.493Z,61.91
2022-10-11T09:15:39.477Z,62.01
2022-10-11T09:16:39.494Z,61.97
2022-10-11T09:17:39.458Z,61.68
2022-10-11T09:18:39.621Z,61.47
2022-10-11T09:19:39.437Z,61.88
2022-10-11T09:20:39.425Z,61.36
2022-10-11T09:21:39.439Z,61.10
2022-10-11T09:22:39.402Z,61.34
2022-10-11T09:23:39.433Z,61.21
2022-10-11T09:24:39.442Z,60.99
2022-10-11T09:25:39.370Z,61.37
2022-10-11T09:26:39.352Z,61.21
2022-10-11T09:28:01.126Z,61.24
2022-10-11T09:28:40.373Z,60.83
2022-10-11T09:29:39.322Z,60.52
2022-10-11T09:30:39.554Z,60.77
2022-10-11T09:31:39.305Z,60.44
2022-10-11T09:32:39.298Z,60.27
2022-10-11T09:33:39.283Z,60.46
2022-10-11T09:34:39.274Z,60.43
2022-10-11T09:35:39.252Z,60.51
2022-10-11T09:36:39.432Z,60.74
2022-10-11T09:37:39.234Z,60.33
2022-10-11T09:38:39.232Z,60.32
2022-10-11T09:39:39.233Z,60.07
2022-10-11T09:40:39.218Z,60.05
2022-10-11T09:41:39.215Z,60.14
2022-10-11T09:42:39.391Z,59.87
2022-10-11T09:43:39.174Z,59.88
2022-10-11T09:44:39.163Z,59.57
2022-10-11T09:45:39.148Z,59.50
2022-10-11T09:46:39.160Z,59.31
2022-10-11T09:47:39.123Z,59.45
2022-10-11T09:48:39.283Z,59.33
2022-10-11T09:49:39.145Z,59.47
2022-10-11T09:50:39.110Z,59.56
2022-10-11T09:51:39.123Z,59.43
2022-10-11T09:52:39.091Z,59.36
2022-10-11T09:53:39.060Z,59.40
2022-10-11T09:54:39.221Z,59.88
2022-10-11T09:55:39.041Z,59.73
2022-10-11T09:56:39.027Z,59.52
2022-10-11T09:57:39.030Z,58.50
2022-10-11T09:58:39.013Z,59.05
2022-10-11T09:59:39.003Z,58.01
2022-10-11T10:00:39.225Z,58.17
2022-10-11T10:01:39.044Z,57.93
2022-10-11T10:02:38.964Z,58.15
2022-10-11T10:03:38.953Z,57.91
2022-10-11T10:04:38.948Z,58.30
2022-10-11T10:05:38.932Z,58.29
2022-10-11T10:06:39.260Z,57.08
2022-10-11T10:07:38.906Z,56.74
2022-10-11T10:08:38.906Z,56.23
2022-10-11T10:09:38.906Z,56.56
2022-10-11T10:10:38.882Z,56.37
2022-10-11T10:11:38.875Z,56.50
2022-10-11T10:12:39.084Z,56.94
2022-10-11T10:13:38.834Z,56.32
2022-10-11T10:14:38.829Z,56.26
2022-10-11T10:15:39.843Z,56.69
2022-10-11T10:16:38.806Z,56.45
2022-10-11T10:17:38.815Z,56.26
2022-10-11T10:18:38.972Z,55.81
2022-10-11T10:19:43.774Z,56.11
2022-10-11T10:20:39.764Z,56.28
2022-10-11T10:21:38.771Z,55.82
2022-10-11T10:22:38.754Z,55.56
2022-10-11T10:23:38.734Z,55.06
2022-10-11T10:24:38.989Z,54.71
2022-10-11T10:25:43.244Z,55.49
2022-10-11T10:26:38.697Z,55.16
2022-10-11T10:27:38.725Z,54.99
2022-10-11T10:28:38.728Z,54.31
2022-10-11T10:29:38.665Z,54.44
2022-10-11T10:30:38.844Z,54.38
2022-10-11T10:31:55.382Z,54.66
2022-10-11T10:32:39.640Z,54.73
2022-10-11T10:33:38.625Z,54.45
2022-10-11T10:34:38.611Z,54.23
2022-10-11T10:35:38.601Z,54.40
2022-10-11T10:36:38.766Z,54.57
2022-10-11T10:37:38.606Z,54.75
2022-10-11T10:38:39.288Z,54.31
2022-10-11T10:39:38.585Z,54.81
2022-10-11T10:40:38.561Z,54.38
2022-10-11T10:41:38.539Z,54.42
2022-10-11T10:42:38.737Z,54.29
2022-10-11T10:43:38.529Z,53.32
2022-10-11T10:44:38.505Z,53.15
2022-10-11T10:45:38.506Z,53.05
2022-10-11T10:46:38.466Z,52.69
2022-10-11T10:47:38.461Z,52.22
2022-10-11T10:49:12.025Z,51.73
2022-10-11T10:49:53.537Z,51.87
2022-10-11T10:50:39.437Z,52.41
2022-10-11T10:51:38.426Z,51.86
2022-10-11T10:52:38.439Z,52.01
2022-10-11T10:53:38.406Z,51.63
2022-10-11T10:54:39.152Z,51.80
2022-10-11T10:55:38.377Z,51.38
2022-10-11T10:56:38.367Z,51.28
2022-10-11T10:57:38.357Z,50.96
2022-10-11T10:58:38.346Z,50.67
2022-10-11T10:59:38.348Z,50.90
2022-10-11T11:00:38.670Z,51.21
2022-10-11T11:01:38.363Z,51.24
2022-10-11T11:02:46.042Z,51.15
2022-10-11T11:03:38.295Z,50.98
2022-10-11T11:04:46.099Z,49.91
2022-10-11T11:05:47.280Z,50.44
2022-10-11T11:06:45.767Z,50.22
2022-10-11T11:07:45.761Z,50.21
2022-10-11T11:08:45.755Z,50.00
2022-10-11T11:09:45.740Z,50.41
2022-10-11T11:10:38.207Z,50.66
2022-10-11T11:11:38.405Z,50.82
2022-10-11T11:12:38.208Z,51.32
2022-10-11T11:13:45.693Z,51.45
2022-10-11T11:14:46.000Z,51.52
2022-10-11T11:15:38.473Z,51.59
2022-10-11T11:16:38.186Z,51.38
2022-10-11T11:17:38.390Z,51.22
2022-10-11T11:18:38.168Z,51.43
2022-10-11T11:19:38.114Z,51.23
2022-10-11T11:20:38.144Z,51.32
2022-10-11T11:21:41.489Z,51.63
2022-10-11T11:22:38.111Z,51.20
2022-10-11T11:23:38.344Z,51.86
2022-10-11T11:24:38.204Z,51.65
2022-10-11T11:25:42.553Z,51.95
2022-10-11T11:26:44.043Z,51.05
2022-10-11T11:27:39.055Z,50.66
2022-10-11T11:28:38.060Z,49.97
2022-10-11T11:29:38.552Z,49.55
2022-10-11T11:30:38.059Z,49.59
2022-10-11T11:31:37.982Z,49.62
2022-10-11T11:32:40.297Z,49.35
2022-10-11T11:33:38.961Z,49.57
2022-10-11T11:34:38.001Z,50.14
2022-10-11T11:35:38.135Z,50.14
2022-10-11T11:36:37.949Z,49.62
2022-10-11T11:37:37.921Z,49.76
2022-10-11T11:38:37.912Z,50.13
2022-10-11T11:39:37.932Z,50.40
2022-10-11T11:40:37.904Z,50.87
2022-10-11T11:41:38.229Z,50.65
2022-10-11T11:42:37.881Z,50.70
2022-10-11T11:43:37.861Z,50.73
2022-10-11T11:44:37.858Z,51.00
2022-10-11T11:45:37.836Z,51.37
2022-10-11T11:46:37.825Z,51.07
2022-10-11T11:47:38.037Z,50.89
2022-10-11T11:48:37.796Z,50.82
2022-10-11T11:49:37.876Z,50.64
2022-10-11T11:50:37.784Z,50.47
2022-10-11T11:51:37.782Z,50.33
2022-10-11T11:52:37.764Z,50.43
2022-10-11T11:53:37.938Z,49.96
2022-10-11T11:54:37.744Z,49.70
2022-10-11T11:55:37.730Z,49.97
2022-10-11T11:56:37.715Z,50.06
2022-10-11T11:57:37.711Z,50.64
2022-10-11T11:58:37.697Z,51.12
2022-10-11T11:59:37.915Z,51.33
2022-10-11T12:00:37.681Z,50.95
2022-10-11T12:01:37.703Z,50.98
2022-10-11T12:02:37.653Z,51.38
2022-10-11T12:03:41.418Z,50.82
2022-10-11T12:04:37.626Z,50.19
2022-10-11T12:05:37.799Z,49.91
2022-10-11T12:06:47.754Z,49.91
2022-10-11T12:07:38.647Z,50.24
2022-10-11T12:08:37.576Z,50.35
2022-10-11T12:09:37.586Z,50.77
2022-10-11T12:10:37.591Z,50.71
2022-10-11T12:11:37.725Z,50.50
2022-10-11T12:12:37.543Z,50.71
2022-10-11T12:13:37.528Z,51.05
2022-10-11T12:14:37.528Z,51.10
2022-10-11T12:15:37.526Z,51.20
2022-10-11T12:16:37.521Z,51.33
2022-10-11T12:17:37.711Z,51.30
2022-10-11T12:18:42.531Z,51.31
2022-10-11T12:19:38.491Z,51.54
2022-10-11T12:20:37.461Z,50.91
2022-10-11T12:21:37.463Z,51.13
2022-10-11T12:22:37.431Z,51.38
2022-10-11T12:23:37.722Z,51.58
2022-10-11T12:24:37.413Z,51.99
2022-10-11T12:25:37.414Z,51.91
2022-10-11T12:26:37.382Z,51.95
2022-10-11T12:27:37.376Z,52.01
2022-10-11T12:28:37.423Z,52.15
2022-10-11T12:29:37.401Z,52.30
2022-10-11T12:30:37.366Z,52.51
2022-10-11T12:31:39.360Z,52.22
2022-10-11T12:32:37.319Z,52.04
2022-10-11T12:33:37.312Z,52.02
2022-10-11T12:34:37.336Z,52.05
2022-10-11T12:35:37.443Z,52.20
2022-10-11T12:36:37.272Z,52.36
2022-10-11T12:37:37.272Z,52.14
2022-10-11T12:38:37.279Z,52.11
2022-10-11T12:39:37.254Z,52.42
2022-10-11T12:40:37.265Z,52.29
2022-10-11T12:41:37.273Z,52.58
2022-10-11T12:42:37.224Z,52.18
2022-10-11T12:43:37.224Z,51.93
2022-10-11T12:44:37.203Z,52.05
2022-10-11T12:45:37.194Z,52.29
2022-10-11T12:46:37.167Z,52.29
2022-10-11T12:47:37.317Z,52.32
2022-10-11T12:48:40.788Z,52.19
2022-10-11T12:49:37.142Z,52.21
2022-10-11T12:50:37.123Z,52.02
2022-10-11T12:51:37.122Z,51.68
2022-10-11T12:52:37.108Z,51.75
2022-10-11T12:53:37.265Z,51.75
2022-10-11T12:54:37.490Z,51.28
2022-10-11T12:55:37.110Z,51.51